Flight Track Log - Related Links

Times and Time Zones

All times are in EST time to prevent confusion due to time zone crossing. See the EJA951 flight status page for this flight to view local times or setup timezone preferences in your user account.

Time Position Orientation Groundspeed Altitude Reporting Facility
EST Latitude Longitude Course Direction KTS MPH feet Rate Location/Type
Thu 02:17:54 PM 40.7631 -111.9658 255° West 190 219 5,300  Level Salt Lake Center
Thu 02:19:06 PM 40.7494 -112.0333 255° West 222 255 7,900 2,301 Climbing Salt Lake Center
Thu 02:19:07 PM 40.7489 -112.0472 267° West 230 265 8,100 3,387 Climbing Salt Lake Center
Thu 02:20:08 PM 40.8025 -112.0819 334° Northwest 248 285 11,400 2,829 Climbing Salt Lake Center
Thu 02:21:10 PM 40.8506 -111.9911 55° Northeast 327 376 13,900 2,516 Climbing Salt Lake Center
Thu 02:22:12 PM 40.8972 -111.8753 62° Northeast 375 432 16,600 1,839 Climbing Salt Lake Center
Thu 02:23:14 PM 40.9300 -111.7414 72° East 396 456 17,700 1,161 Climbing Salt Lake Center
Thu 02:24:16 PM 40.9753 -111.5678 71° East 424 488 19,000 1,452 Climbing Salt Lake Center
Thu 02:25:18 PM 41.0136 -111.4142 72° East 441 507 20,700 1,548 Climbing Salt Lake Center
Thu 02:26:20 PM 41.0525 -111.2586 72° East 446 513 22,200 1,500 Climbing Salt Lake Center
Thu 02:27:22 PM 41.0928 -111.0967 72° East 462 532 23,800 1,597 Climbing Salt Lake Center
Thu 02:28:24 PM 41.1364 -110.9219 72° East 475 547 25,500 1,645 Climbing Salt Lake Center
Thu 02:29:26 PM 41.1825 -110.7300 72° East 488 562 27,200 1,548 Climbing Salt Lake Center
Thu 02:30:28 PM 41.2244 -110.5619 72° East 501 577 28,700 1,645 Climbing Salt Lake Center
Thu 02:31:30 PM 41.2736 -110.3606 72° East 512 589 30,600 1,839 Climbing Salt Lake Center
Thu 02:32:32 PM 41.3150 -110.1861 72° East 517 595 32,500 2,371 Climbing Salt Lake Center
Thu 02:33:34 PM 41.3633 -109.9856 72° East 511 588 35,500 2,032 Climbing Salt Lake Center
Thu 02:34:36 PM 41.4036 -109.8175 72° East 502 578 36,700 1,306 Climbing Salt Lake Center
Thu 02:35:38 PM 41.4444 -109.6447 72° East 508 585 38,200 1,258 Climbing Salt Lake Center
Thu 02:36:40 PM 41.4919 -109.4428 73° East 509 586 39,300 919 Climbing Salt Lake Center
Thu 02:37:42 PM 41.5347 -109.2631 72° East 522 601 40,100 823 Climbing Salt Lake Center
Thu 02:38:44 PM 41.5828 -109.0472 73° East 529 609 41,000 435 Climbing Salt Lake Center
Thu 02:39:46 PM 41.6097 -108.8558 79° East 542 624 41,000  Level Salt Lake Center
Thu 02:40:48 PM 41.6342 -108.6578 81° East 558 642 41,000  Level Salt Lake Center
Thu 02:41:50 PM 41.6611 -108.4239 81° East 568 654 41,000  Level Salt Lake Center
Thu 02:42:52 PM 41.6833 -108.2214 82° East 573 659 41,000  Level Salt Lake Center
Thu 02:43:54 PM 41.7111 -107.9883 81° East 571 657 41,000  Level Salt Lake Center
Thu 02:44:37 PM 41.7258 -107.8525 82° East 571 657 41,000  Level Denver Center
Thu 02:45:39 PM 41.7514 -107.6158 82° East 575 662 41,000  Level Denver Center
Thu 02:46:41 PM 41.7664 -107.4106 84° East 580 667 41,000 48 Level Denver Center
Thu 02:47:43 PM 41.7803 -107.1686 86° East 583 671 41,100  Climbing Denver Center
Thu 02:48:45 PM 41.7936 -106.9628 85° East 580 667 41,000 -48 Descending Denver Center
Thu 02:49:47 PM 41.8067 -106.7231 86° East 580 667 41,000  Level Denver Center
Thu 02:50:49 PM 41.8186 -106.5194 85° East 576 663 41,000  Level Denver Center
Thu 02:51:51 PM 41.8283 -106.3178 86° East 571 657 41,000 48 Level Denver Center
Thu 02:52:53 PM 41.8431 -106.0828 85° East 568 654 41,100  Climbing Denver Center
Thu 02:53:55 PM 41.8589 -105.8800 84° East 571 657 41,000 -48 Descending Denver Center
Thu 02:54:57 PM 41.8883 -105.6461 80° East 572 658 41,000  Level Denver Center
Thu 02:55:59 PM 41.9111 -105.4467 81° East 569 655 41,000  Level Denver Center
Thu 02:57:00 PM 41.9356 -105.2097 82° East 573 659 41,000 49 Level Denver Center
Thu 02:58:02 PM 41.9583 -105.0103 81° East 570 656 41,100  Climbing Denver Center
Thu 02:59:04 PM 41.9828 -104.7781 82° East 567 652 41,000 -48 Descending Denver Center
Thu 03:00:06 PM 42.0047 -104.5744 82° East 574 661 41,000  Level Denver Center
Thu 03:01:08 PM 42.0281 -104.3397 82° East 572 658 41,000  Level Denver Center
Thu 03:02:10 PM 42.0494 -104.1375 82° East 575 662 41,000  Level Denver Center
Thu 03:03:12 PM 42.0728 -103.9000 82° East 577 664 41,000  Level Denver Center
Thu 03:04:14 PM 42.0933 -103.6967 82° East 576 663 41,000  Level Denver Center
Thu 03:05:16 PM 42.1164 -103.4581 82° East 578 665 41,000  Level Denver Center
Thu 03:06:18 PM 42.1356 -103.2533 83° East 577 664 41,000  Level Denver Center
Thu 03:07:20 PM 42.1575 -103.0136 83° East 579 666 41,000  Level Denver Center
Thu 03:08:22 PM 42.1767 -102.8075 83° East 581 669 41,000  Level Denver Center
Thu 03:09:24 PM 42.1972 -102.5672 83° East 581 669 41,000  Level Denver Center
Thu 03:10:26 PM 42.2153 -102.3622 83° East 577 664 41,000  Level Denver Center
Thu 03:11:28 PM 42.2350 -102.1292 83° East 580 667 41,000  Level Denver Center
Thu 03:12:30 PM 42.2525 -101.9219 83° East 580 667 41,000  Level Denver Center
Thu 03:13:32 PM 42.2714 -101.6811 84° East 577 664 41,000  Level Denver Center
Thu 03:14:34 PM 42.2875 -101.4753 84° East 575 662 41,000  Level Denver Center
Thu 03:15:36 PM 42.3069 -101.2314 84° East 582 670 41,000  Level Denver Center
Thu 03:16:38 PM 42.3219 -101.0244 84° East 579 666 41,000  Level Denver Center
Thu 03:17:40 PM 42.3375 -100.8147 84° East 583 671 41,000  Level Denver Center
Thu 03:18:42 PM 42.3533 -100.5731 85° East 579 666 41,000  Level Denver Center
Thu 03:19:44 PM 42.3683 -100.3636 84° East 583 671 41,000  Level Denver Center
Thu 03:20:46 PM 42.3856 -100.1222 84° East 579 666 41,000  Level Denver Center
Thu 03:21:48 PM 42.3972 -99.9128 86° East 581 669 41,000  Level Denver Center
Thu 03:22:50 PM 42.4131 -99.6694 85° East 581 669 41,000  Level Denver Center
Thu 03:23:37 PM 42.4242 -99.5003 85° East 582 670 41,000  Level Minneapolis Center
Thu 03:24:39 PM 42.4361 -99.2800 86° East 584 672 41,000  Level Minneapolis Center
Thu 03:25:41 PM 42.4494 -99.0567 85° East 590 679 41,000  Level Minneapolis Center
Thu 03:26:43 PM 42.4614 -98.8344 86° East 590 679 41,000  Level Minneapolis Center
Thu 03:27:45 PM 42.4742 -98.6153 85° East 586 674 41,000  Level Minneapolis Center
Thu 03:28:47 PM 42.4842 -98.3931 86° East 587 676 41,000  Level Minneapolis Center
Thu 03:29:49 PM 42.4944 -98.1744 86° East 584 672 41,000  Level Minneapolis Center
Thu 03:30:51 PM 42.5072 -97.9100 86° East 585 673 41,000  Level Minneapolis Center
Thu 03:31:53 PM 42.5167 -97.7081 86° East 588 677 41,000  Level Minneapolis Center
Thu 03:32:55 PM 42.5256 -97.4839 87° East 592 681 41,000  Level Minneapolis Center
Thu 03:33:57 PM 42.5344 -97.2592 87° East 596 686 41,000  Level Minneapolis Center
Thu 03:34:59 PM 42.5439 -96.9914 87° East 594 684 41,000  Level Minneapolis Center
Thu 03:36:01 PM 42.5525 -96.7647 87° East 596 686 41,000  Level Minneapolis Center
Thu 03:37:02 PM 42.5600 -96.5431 87° East 593 682 41,000  Level Minneapolis Center
Thu 03:38:04 PM 42.5669 -96.3181 88° East 594 684 41,000  Level Minneapolis Center
Thu 03:39:06 PM 42.5733 -96.0975 88° East 587 676 41,000  Level Minneapolis Center
Thu 03:40:08 PM 42.5797 -95.8731 88° East 590 679 41,000  Level Minneapolis Center
Thu 03:41:10 PM 42.5858 -95.6503 88° East 591 680 41,000  Level Minneapolis Center
Thu 03:42:12 PM 42.5917 -95.3800 88° East 594 684 41,000  Level Minneapolis Center
Thu 03:43:14 PM 42.5958 -95.1578 88° East 589 678 41,000  Level Minneapolis Center
Thu 03:44:16 PM 42.6006 -94.9353 88° East 589 678 41,000  Level Minneapolis Center
Thu 03:45:18 PM 42.6044 -94.7125 89° East 589 678 41,000  Level Minneapolis Center
Thu 03:46:20 PM 42.6078 -94.4881 89° East 591 680 41,000  Level Minneapolis Center
Thu 03:47:22 PM 42.6092 -94.2667 89° East 594 684 41,000  Level Minneapolis Center
Thu 03:48:24 PM 42.5994 -94.0478 93° East 589 678 41,000  Level Minneapolis Center
Thu 03:49:26 PM 42.5883 -93.7858 93° East 586 674 41,000  Level Minneapolis Center
Thu 03:50:28 PM 42.5775 -93.5669 94° East 587 676 41,000  Level Minneapolis Center
Thu 03:51:30 PM 42.5664 -93.3478 94° East 587 676 41,000  Level Minneapolis Center
Thu 03:52:32 PM 42.5550 -93.1297 94° East 587 676 41,000  Level Minneapolis Center
Thu 03:53:32 PM 42.5433 -92.9097 94° East 585 673 41,000  Level Chicago Center
Thu 03:54:34 PM 42.5297 -92.6911 95° East 584 672 41,000  Level Chicago Center
Thu 03:55:36 PM 42.5136 -92.4300 95° East 587 676 41,000  Level Chicago Center
Thu 03:56:38 PM 42.5017 -92.2108 94° East 589 678 41,000  Level Chicago Center
Thu 03:57:41 PM 42.4892 -91.9950 94° East 584 672 41,000  Level Chicago Center
Thu 03:58:43 PM 42.4767 -91.7758 94° East 594 684 41,000  Level Chicago Center
Thu 03:59:45 PM 42.4583 -91.5211 95° East 582 670 41,000  Level Chicago Center
Thu 04:00:47 PM 42.4442 -91.3069 95° East 584 672 41,000  Level Chicago Center
Thu 04:01:49 PM 42.4281 -91.0911 96° East 586 674 41,000  Level Chicago Center
Thu 04:02:51 PM 42.4136 -90.8736 95° East 587 676 41,000  Level Chicago Center
Thu 04:03:53 PM 42.3950 -90.6122 95° East 589 678 41,000  Level Chicago Center
Thu 04:04:55 PM 42.3836 -90.3931 94° East 590 679 41,000  Level Chicago Center
Thu 04:05:58 PM 42.3719 -90.1736 94° East 590 679 41,000  Level Chicago Center
Thu 04:07:00 PM 42.3586 -89.9544 95° East 591 680 41,000  Level Chicago Center
Thu 04:08:02 PM 42.3447 -89.7156 94° East 591 680 41,000  Level Chicago Center
Thu 04:09:04 PM 42.3311 -89.4944 95° East 592 681 41,000  Level Chicago Center
Thu 04:10:06 PM 42.3164 -89.2731 95° East 594 684 41,000  Level Chicago Center
Thu 04:11:08 PM 42.2994 -89.0119 95° East 588 677 41,000  Level Chicago Center
Thu 04:12:10 PM 42.2856 -88.8139 95° East 589 678 41,000  Level Chicago Center
Thu 04:13:12 PM 42.2708 -88.5956 95° East 587 676 41,000  Level Chicago Center
Thu 04:14:14 PM 42.2522 -88.3314 95° East 588 677 41,000  Level Chicago Center
Thu 04:15:17 PM 42.2372 -88.1142 95° East 584 672 41,000  Level Chicago Center
Thu 04:16:19 PM 42.2203 -87.8975 96° East 580 667 41,000  Level Chicago Center
Thu 04:17:21 PM 42.2039 -87.6786 96° East 584 672 41,000  Level Chicago Center
Thu 04:18:23 PM 42.1869 -87.4614 96° East 583 671 41,000  Level Chicago Center
Thu 04:19:25 PM 42.1708 -87.2439 96° East 583 671 41,000  Level Chicago Center
Thu 04:20:27 PM 42.1469 -86.9789 97° East 593 682 41,000  Level Chicago Center
Thu 04:21:29 PM 42.1294 -86.7617 96° East 587 676 41,000  Level Chicago Center
Thu 04:22:31 PM 42.1147 -86.5611 96° East 590 679 41,000  Level Chicago Center
Thu 04:23:33 PM 42.0867 -86.3453 100° East 587 676 41,000  Level Chicago Center
Thu 04:24:35 PM 42.0350 -86.0944 105° East 581 669 41,000  Level Chicago Center
Thu 04:25:38 PM 41.9925 -85.8822 105° East 586 674 41,000  Level Chicago Center
Thu 04:26:40 PM 41.9483 -85.6689 105° East 589 678 41,000  Level Chicago Center
Thu 04:27:42 PM 41.9047 -85.4531 105° East 592 681 41,000  Level Chicago Center
Thu 04:28:44 PM 41.8592 -85.2358 106° East 595 685 41,000  Level Chicago Center
Thu 04:29:46 PM 41.8136 -85.0172 106° East 593 682 41,000  Level Chicago Center
Thu 04:30:48 PM 41.7694 -84.8022 105° East 601 692 41,000  Level Chicago Center
Thu 04:31:50 PM 41.7242 -84.5917 106° East 593 682 41,000  Level Chicago Center
Thu 04:32:37 PM 41.6883 -84.4222 106° East 591 680 41,000  Level Cleveland Center
Thu 04:33:39 PM 41.6381 -84.1972 107° East 590 679 41,000  Level Cleveland Center
Thu 04:34:41 PM 41.5933 -83.9892 106° East 588 677 41,000  Level Cleveland Center
Thu 04:35:43 PM 41.5369 -83.7403 107° East 588 677 41,000  Level Cleveland Center
Thu 04:36:45 PM 41.4908 -83.5342 107° East 586 674 41,000  Level Cleveland Center
Thu 04:37:47 PM 41.4442 -83.3275 107° East 588 677 41,000  Level Cleveland Center
Thu 04:38:49 PM 41.3925 -83.1014 107° East 585 673 41,000  Level Cleveland Center
Thu 04:39:51 PM 41.3444 -82.8939 107° East 583 671 41,000  Level Cleveland Center
Thu 04:40:53 PM 41.2958 -82.6867 107° East 583 671 41,000  Level Cleveland Center
Thu 04:41:56 PM 41.2472 -82.4783 107° East 587 676 41,000  Level Cleveland Center
Thu 04:42:58 PM 41.1986 -82.2717 107° East 585 673 41,000  Level Cleveland Center
Thu 04:44:00 PM 41.1425 -82.0403 108° East 582 670 41,000  Level Cleveland Center
Thu 04:45:02 PM 41.0919 -81.8292 108° East 583 671 41,000  Level Cleveland Center
Thu 04:46:04 PM 41.0431 -81.6278 108° East 581 669 41,000 48 Level Cleveland Center
Thu 04:47:06 PM 40.9922 -81.4256 108° East 580 667 41,100  Climbing Cleveland Center
Thu 04:48:08 PM 40.9411 -81.2228 108° East 581 669 41,000 -48 Descending Cleveland Center
Thu 04:49:10 PM 40.8819 -80.9844 108° East 583 671 41,000  Level Cleveland Center
Thu 04:50:12 PM 40.8314 -80.7808 108° East 584 672 41,000  Level Cleveland Center
Thu 04:51:14 PM 40.7783 -80.5761 109° East 585 673 41,000  Level Cleveland Center
Thu 04:52:17 PM 40.7272 -80.3717 108° East 585 673 41,000  Level Cleveland Center
Thu 04:53:19 PM 40.6725 -80.1650 109° East 584 672 41,000  Level Cleveland Center
Thu 04:54:21 PM 40.6183 -79.9658 110° East 582 670 41,000 -194 Level Cleveland Center
Thu 04:55:23 PM 40.5686 -79.7594 108° East 583 671 40,600 -919 Descending Cleveland Center
Thu 04:56:25 PM 40.5364 -79.5417 101° East 603 694 39,100 -1,258 Descending Cleveland Center
Thu 04:57:27 PM 40.5019 -79.2944 100° East 600 690 38,000 -677 Descending Cleveland Center
Thu 04:58:29 PM 40.4747 -79.0836 100° East 593 682 37,700 -1,016 Descending Cleveland Center
Thu 04:59:31 PM 40.4492 -78.8725 99° East 594 684 35,900 -2,371 Descending Cleveland Center
Thu 05:00:33 PM 40.4317 -78.6158 95° East 597 687 32,800 -2,688 Descending Cleveland Center
Thu 05:01:36 PM 40.4158 -78.4056 96° East 589 678 30,300 -2,352 Descending Cleveland Center
Thu 05:02:38 PM 40.4006 -78.2075 96° East 558 642 27,900 -2,274 Descending Cleveland Center
Thu 05:03:40 PM 40.3842 -78.0189 96° East 534 615 25,600 -1,742 Descending Cleveland Center
Thu 05:04:42 PM 40.3650 -77.8031 97° East 509 586 24,300 -1,355 Descending Cleveland Center
Thu 05:05:44 PM 40.3378 -77.6225 101° East 509 586 22,800 -1,645 Descending Cleveland Center
Thu 05:06:46 PM 40.3100 -77.4506 102° East 496 571 20,900 -1,839 Descending Cleveland Center
Thu 05:07:48 PM 40.2839 -77.2808 101° East 485 558 19,000 -1,403 Descending Cleveland Center
Thu 05:08:50 PM 40.2586 -77.1303 102° East 458 527 18,000 -484 Descending Cleveland Center
Thu 05:09:52 PM 40.2292 -76.9450 102° East 440 506 18,000  Level Cleveland Center
Thu 05:10:55 PM 40.2028 -76.7861 102° East 445 512 18,000 -288 Level Cleveland Center
Thu 05:11:57 PM 40.1764 -76.6253 102° East 451 519 17,400 -1,415 Descending Cleveland Center
Thu 05:12:58 PM 40.1467 -76.4736 104° East 428 493 15,100 -2,471 Descending New York Center
Thu 05:13:56 PM 40.1242 -76.3306 102° East 408 470 12,500 -2,370 Descending New York Center
Thu 05:14:57 PM 40.1156 -76.2022 95° East 398 458 10,400 -1,339 Descending New York Center
Thu 05:15:57 PM 40.1067 -76.0767 95° East 379 436 9,800 -1,190 Descending New York Center
Thu 05:16:58 PM 40.0994 -75.9594 95° East 344 396 8,000 -908 Descending New York Center
Thu 05:17:56 PM 40.0858 -75.8392 98° East 318 366 8,000 -750 Level New York Center
Thu 05:18:58 PM 40.0797 -75.7381 94° East 310 357 6,500 -950 Descending New York Center
Thu 05:19:56 PM 40.0761 -75.6239 92° East 295 339 6,100 -202 Descending New York Center
Thu 05:20:57 PM 40.0736 -75.5317 92° East 290 334 6,100  Level New York Center
Thu 05:21:58 PM 40.0722 -75.4119 91° East 290 334 6,100  Level New York Center
Thu 05:22:48 PM 40.0667 -75.3333 95° East 270 311 6,100 -55 Level Philadelphia TRACON
Thu 05:23:48 PM 40.0167 -75.2667 134° Southeast 228 262 6,000  Descending Philadelphia TRACON
Thu 05:24:48 PM 39.9667 -75.2000 134° Southeast 237 273 6,100 -150 Climbing Philadelphia TRACON
Thu 05:25:48 PM 39.9833 -75.1167 75° East 208 239 5,700 -550 Descending Philadelphia TRACON
Thu 05:26:48 PM 40.0000 -75.0500 72° East 199 229 5,000 -992 Descending Philadelphia TRACON
Thu 05:27:55 PM 40.0167 -74.9833 72° East 196 226 3,600 -1,381 Descending Philadelphia TRACON
Thu 05:28:54 PM 39.9833 -74.9333 131° Southeast 201 231 2,100 -842 Descending Philadelphia TRACON
Thu 05:29:49 PM 39.9500 -74.9667 217° Southwest 175 201 2,000  Descending Philadelphia TRACON
Thu 05:30:43 PM 39.9333 -75.0167 247° West 153 176 2,100  Climbing Philadelphia TRACON
Thu 05:31:49 PM 39.9167 -75.0667 247° West 127 146 2,000 -95 Descending Philadelphia TRACON
Thu 05:32:49 PM 39.9167 -75.1000 270° West 121 139 1,900 -316 Descending Philadelphia TRACON
Thu 05:33:43 PM 39.9000 -75.1333 237° Southwest 116 133 1,400 -667 Descending Philadelphia TRACON
Thu 05:34:37 PM 39.8833 -75.1833 247° West 126 145 700 -778 Descending Philadelphia TRACON

Login

Don't have an account? Register now (free) for customized features, flight alerts, and more!